Time;durP1;ratioP1;P1;durP2;ratioP2;P2;SDS_P1;SDS_P2;PMS_P1;PMS_P2;Temp;Humidity;BMP_temperature;BMP_pressure;BME280_temperature;BME280_humidity;BME280_pressure;Samples;Min_cycle;Max_cycle;Signal;HPM_P1;HPM_P2
2022/03/07 00:02:05;;;;;;;11.88;8.93;;;;;;;3.44;53.00;102676.94;5010656;28;20072;-64
2022/03/07 00:04:31;;;;;;;13.45;9.20;;;;;;;3.41;52.49;102670.91;5008150;28;20113;-64
2022/03/07 00:06:56;;;;;;;11.73;9.27;;;;;;;3.38;53.01;102672.13;5002310;28;20113;-64
2022/03/07 00:09:21;;;;;;;10.48;8.98;;;;;;;3.37;52.65;102667.63;5011716;28;20026;-64
2022/03/07 00:11:47;;;;;;;10.75;9.68;;;;;;;3.35;53.25;102666.94;5007108;28;20060;-64
2022/03/07 00:14:21;;;;;;;11.93;9.07;;;;;;;3.33;52.67;102668.13;5011370;28;20029;-64
2022/03/07 00:16:47;;;;;;;11.95;10.02;;;;;;;3.30;53.29;102669.31;5010767;28;20469;-64
2022/03/07 00:19:12;;;;;;;13.77;9.32;;;;;;;3.27;52.86;102666.88;5010677;28;20040;-64
2022/03/07 00:21:39;;;;;;;11.60;9.50;;;;;;;3.26;53.69;102669.78;5010959;28;20042;-64
2022/03/07 00:24:06;;;;;;;15.48;10.80;;;;;;;3.26;53.30;102675.25;5011000;28;20040;-64
2022/03/07 00:26:32;;;;;;;12.30;9.80;;;;;;;3.21;53.29;102662.03;5011455;28;20200;-64
2022/03/07 00:28:57;;;;;;;12.32;9.75;;;;;;;3.18;52.77;102671.47;5010609;28;20516;-65
2022/03/07 00:31:23;;;;;;;11.30;9.45;;;;;;;3.14;53.30;102666.44;5010420;28;20491;-64
2022/03/07 00:33:49;;;;;;;12.60;9.77;;;;;;;3.15;53.88;102669.03;5011460;28;20040;-64
2022/03/07 00:36:15;;;;;;;12.65;10.13;;;;;;;3.10;53.59;102676.00;5017675;28;20108;-64
2022/03/07 00:38:41;;;;;;;14.50;10.40;;;;;;;3.06;53.53;102675.44;5030800;28;20079;-64
2022/03/07 00:41:08;;;;;;;13.23;10.07;;;;;;;3.05;53.63;102671.00;5025262;28;20508;-64
2022/03/07 00:43:34;;;;;;;13.55;10.25;;;;;;;3.05;54.08;102684.72;5011083;28;20099;-64
2022/03/07 00:45:59;;;;;;;13.88;9.95;;;;;;;3.03;53.89;102675.78;5009597;28;20033;-64
2022/03/07 00:48:25;;;;;;;11.95;10.75;;;;;;;3.04;54.18;102677.50;5010799;28;20018;-64
2022/03/07 00:50:51;;;;;;;13.60;9.80;;;;;;;3.07;53.34;102679.09;5010353;28;20481;-64
2022/03/07 00:53:19;;;;;;;13.98;10.57;;;;;;;3.06;53.63;102678.19;5010572;28;20077;-64
2022/03/07 00:55:45;;;;;;;14.02;9.88;;;;;;;3.04;53.11;102676.66;5010849;28;20022;-64
2022/03/07 00:58:11;;;;;;;14.35;10.38;;;;;;;3.00;53.84;102678.00;5010067;28;20096;-64
2022/03/07 01:00:37;;;;;;;10.75;9.65;;;;;;;2.95;54.32;102676.59;5009636;28;20733;-64
2022/03/07 01:03:07;;;;;;;14.38;10.25;;;;;;;2.94;54.19;102673.97;5010734;28;20462;-65
2022/03/07 01:05:32;;;;;;;10.88;9.43;;;;;;;2.93;53.63;102683.22;5010367;28;20064;-64
2022/03/07 01:07:58;;;;;;;11.82;10.32;;;;;;;2.95;53.38;102684.81;5010370;28;20367;-64
2022/03/07 01:10:23;;;;;;;15.88;9.95;;;;;;;2.90;54.05;102687.16;5011276;28;20021;-64
2022/03/07 01:12:49;;;;;;;13.35;10.32;;;;;;;2.88;54.14;102688.34;5010538;28;20026;-64
2022/03/07 01:15:15;;;;;;;17.08;10.85;;;;;;;2.86;54.06;102687.63;5009302;28;20401;-64
2022/03/07 01:17:43;;;;;;;13.88;10.70;;;;;;;2.85;54.21;102688.66;5010797;28;20029;-65
2022/03/07 01:20:10;;;;;;;13.88;10.77;;;;;;;2.83;54.40;102690.66;5009865;28;20038;-64
2022/03/07 01:22:38;;;;;;;11.00;9.80;;;;;;;2.79;53.75;102683.78;5006919;28;20504;-65
2022/03/07 01:25:05;;;;;;;12.07;10.13;;;;;;;2.76;54.51;102679.50;5010441;28;20042;-64
2022/03/07 01:27:31;;;;;;;11.68;9.85;;;;;;;2.78;53.84;102684.81;5013448;28;20049;-64
2022/03/07 01:29:56;;;;;;;11.05;9.75;;;;;;;2.78;53.57;102685.66;5013273;28;20470;-64
2022/03/07 01:32:22;;;;;;;11.73;9.70;;;;;;;2.77;53.68;102680.34;5014280;28;20042;-64
2022/03/07 01:34:48;;;;;;;13.95;10.07;;;;;;;2.74;53.83;102683.41;5013843;28;20034;-64
2022/03/07 01:37:13;;;;;;;14.27;10.57;;;;;;;2.71;53.80;102679.06;5014204;28;20095;-64
2022/03/07 01:39:38;;;;;;;16.20;10.50;;;;;;;2.73;54.01;102678.94;5011548;28;20037;-65
2022/03/07 01:42:04;;;;;;;13.38;9.75;;;;;;;2.69;54.34;102678.38;5013970;28;20482;-65
2022/03/07 01:44:29;;;;;;;15.10;10.20;;;;;;;2.68;54.15;102682.16;5013620;28;20022;-65
2022/03/07 01:46:57;;;;;;;14.30;10.07;;;;;;;2.66;54.28;102676.81;5014351;28;20064;-65
2022/03/07 01:49:23;;;;;;;13.35;9.73;;;;;;;2.67;53.75;102680.41;5013124;28;20026;-66
2022/03/07 01:51:49;;;;;;;12.85;9.82;;;;;;;2.63;54.42;102674.41;5006133;28;20141;-65
2022/03/07 01:54:17;;;;;;;12.70;10.32;;;;;;;2.59;54.92;102675.72;5010061;28;20117;-65
2022/03/07 01:56:45;;;;;;;13.05;10.05;;;;;;;2.61;53.98;102670.94;5007530;28;20121;-65
2022/03/07 01:59:12;;;;;;;11.52;9.07;;;;;;;2.65;54.46;102676.97;5014390;28;20503;-65
2022/03/07 02:01:39;;;;;;;10.98;9.82;;;;;;;2.60;54.56;102671.97;5013492;28;20473;-65
2022/03/07 02:04:05;;;;;;;12.32;9.77;;;;;;;2.61;54.26;102679.16;5013747;28;20088;-65
2022/03/07 02:06:33;;;;;;;10.30;9.27;;;;;;;2.60;54.87;102674.72;5014143;28;20045;-65
2022/03/07 02:09:08;;;;;;;11.48;9.82;;;;;;;2.65;54.98;102666.88;5011968;28;20049;-65
2022/03/07 02:11:35;;;;;;;13.88;10.20;;;;;;;2.63;54.56;102666.19;5009142;28;20026;-65
2022/03/07 02:14:22;;;;;;;12.88;10.05;;;;;;;2.72;54.69;102666.25;5013732;28;20497;-65
2022/03/07 02:16:48;;;;;;;14.63;10.27;;;;;;;2.65;54.36;102666.88;5012196;28;20046;-65
2022/03/07 02:19:14;;;;;;;13.20;9.98;;;;;;;2.65;55.05;102666.88;5012721;28;20026;-65
2022/03/07 02:21:46;;;;;;;16.33;10.32;;;;;;;2.65;54.25;102666.88;5012891;28;20049;-65
2022/03/07 02:24:12;;;;;;;14.20;10.33;;;;;;;2.71;55.03;102665.38;5012515;28;20037;-65
2022/03/07 02:26:37;;;;;;;11.07;9.93;;;;;;;2.64;54.30;102653.34;5012541;28;20305;-65
2022/03/07 02:29:03;;;;;;;15.15;10.48;;;;;;;2.64;54.80;102659.69;5013004;28;20129;-65
2022/03/07 02:31:29;;;;;;;13.00;9.88;;;;;;;2.63;54.35;102657.97;5012770;28;20102;-65
2022/03/07 02:33:55;;;;;;;14.57;10.57;;;;;;;2.60;54.77;102651.94;5012855;28;20026;-65
2022/03/07 02:36:21;;;;;;;15.50;10.52;;;;;;;2.58;54.55;102654.81;5013215;28;20088;-66
2022/03/07 02:38:46;;;;;;;15.07;11.00;;;;;;;2.61;54.70;102654.50;5011323;28;20053;-65
2022/03/07 02:41:12;;;;;;;12.20;10.40;;;;;;;2.61;54.87;102653.63;5013319;28;20046;-65
2022/03/07 02:43:37;;;;;;;13.75;10.20;;;;;;;2.64;54.46;102667.03;5012973;28;20030;-65
2022/03/07 02:46:02;;;;;;;12.98;10.77;;;;;;;2.62;54.57;102658.09;5020746;28;20032;-65
2022/03/07 02:48:28;;;;;;;15.43;10.65;;;;;;;2.60;54.56;102661.00;5012611;28;20033;-66
2022/03/07 02:50:55;;;;;;;14.18;11.10;;;;;;;2.61;55.38;102659.13;5013201;28;20036;-66
2022/03/07 02:53:23;;;;;;;12.48;11.18;;;;;;;2.59;55.20;102658.41;5011933;28;20795;-65
2022/03/07 02:55:48;;;;;;;11.80;10.60;;;;;;;2.55;55.59;102652.38;5020247;28;20116;-65
2022/03/07 02:58:16;;;;;;;12.07;10.82;;;;;;;2.52;55.29;102658.19;5008646;28;20026;-65
2022/03/07 03:00:42;;;;;;;14.10;10.05;;;;;;;2.49;54.86;102647.53;5011522;28;20072;-65
2022/03/07 03:03:07;;;;;;;12.13;10.75;;;;;;;2.46;54.92;102645.94;5012625;28;20057;-65
2022/03/07 03:05:34;;;;;;;12.65;10.52;;;;;;;2.42;54.71;102651.91;5018229;28;20045;-65
2022/03/07 03:07:59;;;;;;;14.30;10.82;;;;;;;2.36;54.64;102653.41;5011353;28;20026;-65
2022/03/07 03:10:25;;;;;;;14.52;10.52;;;;;;;2.35;55.18;102646.16;5011705;28;20042;-65
2022/03/07 03:12:50;;;;;;;13.88;10.80;;;;;;;2.33;55.39;102661.06;5012824;28;20022;-65
2022/03/07 03:15:17;;;;;;;11.73;10.52;;;;;;;2.31;55.52;102652.13;5009676;28;20068;-66
2022/03/07 03:17:44;;;;;;;11.13;9.98;;;;;;;2.30;54.99;102645.78;5011710;28;20084;-65
2022/03/07 03:20:11;;;;;;;16.85;11.70;;;;;;;2.29;55.86;102652.28;5011696;28;20054;-65
2022/03/07 03:22:38;;;;;;;14.30;10.60;;;;;;;2.26;55.90;102652.59;5011894;28;20080;-64
2022/03/07 03:25:06;;;;;;;13.95;11.25;;;;;;;2.24;54.96;102648.28;5009003;28;20126;-64
2022/03/07 03:27:31;;;;;;;12.70;10.93;;;;;;;2.23;55.42;102658.38;5011310;28;20113;-65
2022/03/07 03:29:57;;;;;;;15.73;11.25;;;;;;;2.25;55.66;102652.75;5012586;28;20026;-65
2022/03/07 03:32:36;;;;;;;13.32;10.85;;;;;;;2.21;55.63;102652.19;5010970;28;20087;-64
2022/03/07 03:35:01;;;;;;;14.00;10.77;;;;;;;2.25;55.62;102653.63;5010265;28;20037;-64
2022/03/07 03:37:26;;;;;;;15.27;11.32;;;;;;;2.24;55.90;102651.00;5011896;28;20032;-65
2022/03/07 03:39:52;;;;;;;15.40;11.40;;;;;;;2.24;55.22;102651.00;5012573;28;20133;-64
2022/03/07 03:42:17;;;;;;;12.82;11.52;;;;;;;2.21;55.54;102649.47;5010678;28;20096;-65
2022/03/07 03:44:43;;;;;;;15.25;11.55;;;;;;;2.21;55.85;102647.59;5011121;28;20052;-64
2022/03/07 03:47:11;;;;;;;14.57;11.73;;;;;;;2.16;56.16;102660.00;5011525;28;20474;-65
2022/03/07 03:49:36;;;;;;;12.90;11.07;;;;;;;2.13;55.51;102668.53;5008257;28;20033;-66
2022/03/07 03:52:05;;;;;;;15.40;11.52;;;;;;;2.13;55.63;102666.66;5011119;28;20030;-65
2022/03/07 03:54:33;;;;;;;13.35;11.35;;;;;;;2.04;55.28;102661.22;5007895;28;20034;-65
2022/03/07 03:56:59;;;;;;;13.63;11.35;;;;;;;1.99;55.32;102658.94;5010325;28;20072;-65
2022/03/07 03:59:27;;;;;;;14.82;11.70;;;;;;;2.02;56.38;102663.28;5011694;28;20440;-65
2022/03/07 04:01:52;;;;;;;13.13;10.93;;;;;;;1.99;56.21;102669.03;5009136;28;20409;-65
2022/03/07 04:04:20;;;;;;;15.07;11.52;;;;;;;1.96;55.82;102670.19;5010631;28;20041;-66
2022/03/07 04:06:46;;;;;;;12.40;11.10;;;;;;;1.97;55.56;102674.69;5010787;28;20018;-65
2022/03/07 04:09:23;;;;;;;11.95;10.68;;;;;;;2.03;55.64;102674.06;5009285;28;20034;-65
2022/03/07 04:11:49;;;;;;;13.00;10.77;;;;;;;2.01;55.42;102673.38;5009643;28;20476;-65
2022/03/07 04:14:17;;;;;;;16.15;11.75;;;;;;;1.90;55.79;102670.81;5010249;28;20113;-65
2022/03/07 04:16:46;;;;;;;12.63;11.30;;;;;;;1.90;55.14;102670.81;5010575;28;20452;-65
2022/03/07 04:19:12;;;;;;;16.98;11.35;;;;;;;1.92;56.04;102666.91;5007357;28;20022;-65
2022/03/07 04:21:39;;;;;;;15.20;11.85;;;;;;;1.84;55.50;102666.81;5010821;28;20527;-65
2022/03/07 04:24:09;;;;;;;13.15;11.77;;;;;;;1.85;55.85;102663.06;5010286;28;20152;-65
2022/03/07 04:26:34;;;;;;;17.00;12.50;;;;;;;1.79;56.41;102665.53;5010658;28;20061;-65
2022/03/07 04:29:00;;;;;;;14.88;11.55;;;;;;;1.81;56.25;102667.13;5011369;28;20050;-65
2022/03/07 04:31:26;;;;;;;13.85;11.65;;;;;;;1.84;56.07;102664.06;5010596;28;20049;-65
2022/03/07 04:33:54;;;;;;;12.38;11.05;;;;;;;1.83;55.75;102656.88;5011669;28;20018;-65
2022/03/07 04:36:20;;;;;;;14.20;11.57;;;;;;;1.82;56.61;102662.50;5017884;28;20040;-65
2022/03/07 04:38:48;;;;;;;14.73;11.30;;;;;;;1.80;56.48;102664.53;5007744;28;20054;-65
2022/03/07 04:41:14;;;;;;;13.18;11.30;;;;;;;1.75;55.90;102658.66;4991742;28;20151;-65
2022/03/07 04:43:42;;;;;;;14.77;12.15;;;;;;;1.78;56.10;102661.09;4989968;28;20490;-67
2022/03/07 04:46:08;;;;;;;19.48;12.75;;;;;;;1.79;56.28;102663.66;4989474;28;20019;-65
2022/03/07 04:48:34;;;;;;;16.90;12.48;;;;;;;1.80;56.40;102662.63;4989189;28;20038;-65
2022/03/07 04:50:59;;;;;;;14.85;11.48;;;;;;;1.81;56.33;102658.91;4991485;28;20386;-65
2022/03/07 04:53:24;;;;;;;17.17;11.95;;;;;;;1.85;56.84;102662.22;4991036;28;20084;-65
2022/03/07 04:55:50;;;;;;;16.13;12.60;;;;;;;1.89;56.37;102658.16;4991078;28;20030;-65
2022/03/07 04:58:15;;;;;;;16.17;13.27;;;;;;;1.92;57.04;102660.56;4991885;28;20042;-65
2022/03/07 05:00:41;;;;;;;15.70;12.38;;;;;;;1.91;57.09;102667.94;4994995;28;20058;-65
2022/03/07 05:03:06;;;;;;;16.58;11.48;;;;;;;1.94;56.78;102664.88;4995822;28;20030;-65
2022/03/07 05:05:31;;;;;;;14.48;11.80;;;;;;;1.91;56.44;102665.19;4991950;28;20027;-65
2022/03/07 05:07:57;;;;;;;14.23;12.20;;;;;;;1.90;56.47;102657.13;4995630;28;20045;-65
2022/03/07 05:10:22;;;;;;;14.18;11.85;;;;;;;1.82;56.25;102657.88;4995422;28;20019;-65
2022/03/07 05:12:48;;;;;;;14.43;12.55;;;;;;;1.88;55.83;102661.88;4994828;28;20101;-65
2022/03/07 05:15:14;;;;;;;16.10;13.40;;;;;;;1.80;56.67;102659.91;4995544;28;20057;-65
2022/03/07 05:17:53;;;;;;;15.10;12.40;;;;;;;1.71;56.71;102638.91;4995444;28;20056;-65
2022/03/07 05:20:19;;;;;;;14.43;12.38;;;;;;;1.78;56.56;102650.13;4990696;28;20030;-66
2022/03/07 05:22:45;;;;;;;15.52;12.48;;;;;;;1.78;56.44;102655.63;4993977;28;20046;-65
2022/03/07 05:25:12;;;;;;;15.35;12.18;;;;;;;1.80;56.93;102659.03;5001032;28;20030;-65
2022/03/07 05:27:40;;;;;;;16.70;12.75;;;;;;;1.80;56.72;102662.63;4994220;28;20049;-65
2022/03/07 05:30:08;;;;;;;15.55;12.63;;;;;;;1.81;57.03;102660.75;4995332;28;20033;-64
2022/03/07 05:32:33;;;;;;;17.58;12.13;;;;;;;1.75;57.14;102648.56;5011470;28;20045;-64
2022/03/07 05:34:59;;;;;;;16.08;12.05;;;;;;;1.76;56.54;102658.47;5000639;28;20030;-65
2022/03/07 05:37:24;;;;;;;14.60;12.93;;;;;;;1.76;57.08;102660.34;5005164;28;20041;-64
2022/03/07 05:39:49;;;;;;;16.08;13.32;;;;;;;1.70;57.00;102659.97;4998189;28;20486;-64
2022/03/07 05:42:15;;;;;;;14.57;12.32;;;;;;;1.67;56.30;102660.25;4994017;28;20045;-64
2022/03/07 05:44:40;;;;;;;18.92;13.18;;;;;;;1.64;56.66;102663.28;4993655;28;20853;-64
2022/03/07 05:47:06;;;;;;;15.48;12.40;;;;;;;1.64;57.15;102666.03;4994011;28;20041;-64
2022/03/07 05:49:34;;;;;;;15.05;12.30;;;;;;;1.64;56.80;102670.63;4993489;28;20189;-64
2022/03/07 05:51:59;;;;;;;17.33;12.82;;;;;;;1.61;56.52;102680.03;4995592;28;20026;-65
2022/03/07 05:54:25;;;;;;;16.67;12.60;;;;;;;1.60;56.48;102664.59;4994776;28;20117;-64
2022/03/07 05:56:53;;;;;;;15.90;12.63;;;;;;;1.61;56.46;102662.72;4993896;28;20504;-65
2022/03/07 05:59:19;;;;;;;14.88;12.85;;;;;;;1.53;57.23;102666.19;4993618;28;20474;-64
2022/03/07 06:01:44;;;;;;;15.90;13.18;;;;;;;1.48;56.63;102665.78;4992008;28;20030;-65
2022/03/07 06:04:09;;;;;;;17.05;13.60;;;;;;;1.49;57.32;102673.00;4994690;28;20077;-64
2022/03/07 06:06:35;;;;;;;14.75;13.10;;;;;;;1.54;57.01;102678.91;4994146;28;20724;-64
2022/03/07 06:09:03;;;;;;;17.05;13.35;;;;;;;1.53;57.50;102679.88;4993325;28;20072;-64
2022/03/07 06:11:28;;;;;;;16.33;13.98;;;;;;;1.56;57.16;102681.47;4994066;28;20030;-64
2022/03/07 06:13:56;;;;;;;19.60;14.43;;;;;;;1.54;57.53;102686.25;4993189;28;20041;-65
2022/03/07 06:16:21;;;;;;;19.35;13.85;;;;;;;1.58;57.31;102688.53;4990858;28;20394;-65
2022/03/07 06:18:49;;;;;;;20.42;13.98;;;;;;;1.65;57.12;102694.25;4974800;28;20038;-65
2022/03/07 06:21:17;;;;;;;19.92;14.52;;;;;;;1.65;57.69;102697.88;4987969;28;20033;-65
2022/03/07 06:23:45;;;;;;;18.15;14.63;;;;;;;1.60;57.67;102691.09;4992295;28;20121;-65
2022/03/07 06:26:11;;;;;;;24.65;14.30;;;;;;;1.63;57.14;102697.16;4993439;28;20112;-65
2022/03/07 06:28:36;;;;;;;19.55;14.20;;;;;;;1.67;57.66;102704.06;4992628;28;20466;-65
2022/03/07 06:31:02;;;;;;;19.63;15.18;;;;;;;1.68;57.69;102702.16;4992646;28;20034;-65
2022/03/07 06:33:31;;;;;;;20.95;15.27;;;;;;;1.65;57.54;102705.19;4992911;28;20042;-65
2022/03/07 06:35:56;;;;;;;21.38;14.73;;;;;;;1.63;57.41;102708.09;4990652;28;20041;-65
2022/03/07 06:38:21;;;;;;;18.05;15.25;;;;;;;1.70;57.93;102703.75;4991008;28;20041;-65
2022/03/07 06:40:47;;;;;;;16.83;14.75;;;;;;;1.74;57.07;102714.41;5009929;28;20046;-65
2022/03/07 06:43:13;;;;;;;16.88;14.38;;;;;;;1.72;57.62;102701.72;5013323;28;20354;-64
2022/03/07 06:45:39;;;;;;;21.05;15.00;;;;;;;1.75;57.40;102716.13;5016387;28;20029;-64
2022/03/07 06:48:07;;;;;;;17.58;14.80;;;;;;;1.67;57.66;102715.00;5012758;28;20469;-65
2022/03/07 06:50:35;;;;;;;24.60;16.25;;;;;;;1.62;58.00;102711.00;5012046;28;20037;-65
2022/03/07 06:53:00;;;;;;;16.58;14.88;;;;;;;1.61;57.30;102712.00;5008858;28;20096;-64
2022/03/07 06:55:26;;;;;;;18.73;14.80;;;;;;;1.67;57.66;102719.63;5013084;28;20448;-65
2022/03/07 06:57:52;;;;;;;23.30;15.95;;;;;;;1.68;57.76;102713.97;5012416;28;20030;-64
2022/03/07 07:00:18;;;;;;;21.85;14.75;;;;;;;1.76;57.43;102723.31;5011693;28;20034;-64
2022/03/07 07:02:45;;;;;;;19.60;15.00;;;;;;;1.72;57.76;102718.16;5012720;28;20069;-64
2022/03/07 07:05:10;;;;;;;17.42;15.52;;;;;;;1.72;57.97;102715.41;5011321;28;20025;-64
2022/03/07 07:07:37;;;;;;;19.58;16.23;;;;;;;1.76;57.30;102717.84;5012388;28;20053;-65
2022/03/07 07:10:07;;;;;;;21.00;16.38;;;;;;;1.80;57.73;102722.00;5001211;28;20045;-64
2022/03/07 07:12:33;;;;;;;18.23;15.23;;;;;;;1.81;57.59;102726.47;5006680;28;20030;-65
2022/03/07 07:14:58;;;;;;;18.42;14.93;;;;;;;1.87;57.44;102715.78;4995238;28;20069;-64
2022/03/07 07:17:27;;;;;;;18.70;15.70;;;;;;;1.89;57.40;102718.41;5012042;28;20057;-64
2022/03/07 07:19:52;;;;;;;17.40;15.60;;;;;;;1.87;57.40;102717.66;5010597;28;20121;-64
2022/03/07 07:22:17;;;;;;;19.85;15.27;;;;;;;1.97;57.65;102713.03;5023306;28;20121;-65
2022/03/07 07:24:43;;;;;;;18.23;16.27;;;;;;;1.99;57.71;102718.34;5011551;28;20363;-65
2022/03/07 07:27:08;;;;;;;19.58;16.95;;;;;;;2.02;57.30;102713.44;5011917;28;20041;-65
2022/03/07 07:29:34;;;;;;;20.10;15.95;;;;;;;2.08;56.96;102710.06;5002246;28;20030;-65
2022/03/07 07:32:02;;;;;;;20.17;16.52;;;;;;;2.06;57.22;102714.84;4995472;28;20470;-63
2022/03/07 07:34:28;;;;;;;17.48;15.60;;;;;;;2.09;57.60;102709.06;4993055;28;20121;-63
2022/03/07 07:36:56;;;;;;;17.80;15.57;;;;;;;2.15;57.78;102713.94;4999951;28;20544;-63
2022/03/07 07:39:21;;;;;;;20.00;16.25;;;;;;;2.19;56.79;102715.34;4995585;28;20069;-64
2022/03/07 07:41:47;;;;;;;24.15;13.50;;;;;;;2.59;60.54;102715.97;5003990;28;20120;-63
2022/03/07 07:44:12;;;;;;;17.05;14.23;;;;;;;2.66;56.46;102717.94;5000430;28;20057;-63
2022/03/07 07:46:37;;;;;;;32.25;16.73;;;;;;;2.77;56.86;102716.00;5006019;28;20033;-63
2022/03/07 07:49:03;;;;;;;16.52;14.65;;;;;;;2.82;55.35;102727.34;4994952;28;20046;-64
2022/03/07 07:51:28;;;;;;;21.48;14.38;;;;;;;2.85;56.03;102722.41;4991224;28;20029;-63
2022/03/07 07:53:54;;;;;;;20.70;14.90;;;;;;;2.83;55.66;102726.31;4994824;28;20076;-63
2022/03/07 07:56:25;;;;;;;21.85;14.93;;;;;;;2.84;55.63;102726.19;4996877;28;20045;-65
2022/03/07 07:58:50;;;;;;;17.98;14.95;;;;;;;2.91;55.69;102721.81;4991049;28;20044;-66
2022/03/07 08:01:15;;;;;;;16.27;13.90;;;;;;;3.01;54.98;102731.81;4996144;28;20030;-65
2022/03/07 08:03:41;;;;;;;19.83;14.93;;;;;;;3.06;55.22;102724.84;5000811;28;20033;-65
2022/03/07 08:06:06;;;;;;;17.20;14.75;;;;;;;3.19;54.87;102714.34;4995717;28;20025;-65
2022/03/07 08:08:31;;;;;;;16.33;14.38;;;;;;;3.31;54.94;102723.19;4992327;28;20038;-65
2022/03/07 08:10:57;;;;;;;16.38;14.63;;;;;;;3.47;54.82;102724.31;4991165;28;20397;-66
2022/03/07 08:13:25;;;;;;;19.45;14.35;;;;;;;3.57;54.42;102728.66;4992094;28;20026;-63
2022/03/07 08:15:50;;;;;;;18.88;13.10;;;;;;;3.69;54.12;102721.91;4991883;28;20128;-68
2022/03/07 08:18:17;;;;;;;19.58;13.75;;;;;;;3.79;54.05;102735.50;4994162;28;20125;-65
2022/03/07 08:20:43;;;;;;;16.13;13.00;;;;;;;3.92;53.61;102732.31;5004438;28;20053;-64
2022/03/07 08:23:08;;;;;;;16.60;13.10;;;;;;;4.05;52.77;102729.13;5001025;28;20088;-65
2022/03/07 08:25:36;;;;;;;13.93;12.48;;;;;;;4.17;52.11;102717.69;4992707;28;20051;-63
2022/03/07 08:28:02;;;;;;;14.38;11.77;;;;;;;4.33;51.17;102727.03;4992666;28;20401;-65
2022/03/07 08:30:28;;;;;;;16.88;12.23;;;;;;;4.43;50.95;102725.00;4991702;28;20047;-63
2022/03/07 08:32:54;;;;;;;13.10;11.73;;;;;;;4.52;49.59;102724.00;4996012;28;20031;-64
2022/03/07 08:35:26;;;;;;;13.35;11.95;;;;;;;4.60;49.42;102726.78;5006012;28;20030;-63
2022/03/07 08:37:53;;;;;;;14.10;11.55;;;;;;;4.71;49.47;102727.47;5007740;28;20025;-62
2022/03/07 08:40:20;;;;;;;12.88;11.25;;;;;;;4.81;48.79;102729.06;4990355;28;20050;-62
2022/03/07 08:42:48;;;;;;;14.48;12.05;;;;;;;4.97;48.83;102733.72;5000738;28;20076;-61
2022/03/07 08:45:14;;;;;;;13.88;12.10;;;;;;;5.06;48.32;102721.69;5000034;28;20504;-61
2022/03/07 08:47:41;;;;;;;14.48;11.95;;;;;;;5.13;48.36;102728.22;5003908;28;20049;-61
2022/03/07 08:50:09;;;;;;;13.98;11.63;;;;;;;5.26;47.88;102732.34;5003631;28;20081;-63
2022/03/07 08:52:35;;;;;;;15.18;11.45;;;;;;;5.35;47.50;102723.94;5003545;28;20031;-63
2022/03/07 08:55:04;;;;;;;12.13;10.82;;;;;;;5.40;46.25;102724.25;4993462;28;20030;-60
2022/03/07 08:57:29;;;;;;;14.00;10.32;;;;;;;5.47;46.19;102723.59;4994180;28;20037;-58
2022/03/07 08:59:54;;;;;;;14.07;10.73;;;;;;;5.50;46.26;102724.09;5004702;28;20581;-61
2022/03/07 09:02:20;;;;;;;14.48;11.02;;;;;;;5.55;46.05;102715.31;5004255;28;20041;-60
2022/03/07 09:04:45;;;;;;;12.30;8.93;;;;;;;5.85;50.64;102722.81;5000505;28;20065;-61
2022/03/07 09:07:11;;;;;;;13.80;10.40;;;;;;;5.89;45.65;102712.28;4999802;28;20451;-63
2022/03/07 09:09:36;;;;;;;12.27;10.20;;;;;;;5.95;44.55;102711.63;5004316;28;20212;-63
2022/03/07 09:12:07;;;;;;;12.75;10.30;;;;;;;6.01;45.52;102721.06;5007681;28;20036;-63
2022/03/07 09:14:36;;;;;;;14.52;10.25;;;;;;;6.06;45.44;102708.50;5004086;28;20501;-62
2022/03/07 09:17:02;;;;;;;12.10;8.60;;;;;;;6.08;43.80;102706.41;5003639;28;20072;-63
2022/03/07 09:19:28;;;;;;;15.95;9.07;;;;;;;6.06;43.67;102704.88;5005320;28;20034;-63
2022/03/07 09:21:53;;;;;;;9.77;8.60;;;;;;;6.14;43.55;102702.09;5003073;28;20034;-64
2022/03/07 09:24:19;;;;;;;12.80;8.85;;;;;;;6.23;43.44;102708.41;5005599;28;20029;-64
2022/03/07 09:26:44;;;;;;;12.52;8.65;;;;;;;6.32;43.02;102710.09;5004315;28;20456;-63
2022/03/07 09:29:13;;;;;;;11.32;8.95;;;;;;;6.35;43.05;102701.47;5000935;28;20040;-65
2022/03/07 09:31:39;;;;;;;10.65;9.13;;;;;;;6.44;42.97;102702.28;5005069;28;20034;-61
2022/03/07 09:34:04;;;;;;;10.82;8.38;;;;;;;6.48;41.96;102704.47;5003705;28;20026;-62
2022/03/07 09:36:29;;;;;;;8.48;7.35;;;;;;;6.53;42.42;102698.44;4999761;28;20026;-64
2022/03/07 09:38:55;;;;;;;8.40;7.57;;;;;;;6.60;42.03;102693.91;5004855;28;20076;-64
2022/03/07 09:41:21;;;;;;;9.38;7.43;;;;;;;6.59;41.16;102698.56;5003224;28;20072;-66
2022/03/07 09:43:46;;;;;;;10.02;7.30;;;;;;;6.67;42.13;102694.03;5005689;28;20034;-67
2022/03/07 09:46:14;;;;;;;10.05;7.53;;;;;;;6.71;41.48;102687.13;5006624;28;20030;-65
2022/03/07 09:48:41;;;;;;;12.05;8.02;;;;;;;6.77;41.12;102683.63;5004825;28;20030;-66
2022/03/07 09:51:06;;;;;;;9.65;7.43;;;;;;;6.79;41.19;102687.06;5005574;28;20058;-66
2022/03/07 09:53:32;;;;;;;8.30;7.50;;;;;;;6.89;41.49;102683.03;5009169;28;20072;-67
2022/03/07 09:55:57;;;;;;;8.77;6.75;;;;;;;6.98;40.89;102685.72;5007286;28;20088;-66
2022/03/07 09:58:22;;;;;;;8.65;7.15;;;;;;;7.00;40.13;102684.50;5006790;28;20034;-66
2022/03/07 10:00:48;;;;;;;7.40;6.47;;;;;;;6.97;40.66;102682.09;5011359;28;20034;-66
2022/03/07 10:03:14;;;;;;;7.13;6.43;;;;;;;6.98;40.35;102675.53;5011097;28;20080;-67
2022/03/07 10:05:44;;;;;;;8.88;6.70;;;;;;;7.01;40.07;102669.63;5008200;28;20030;-67
2022/03/07 10:08:10;;;;;;;9.07;6.32;;;;;;;7.05;39.72;102672.91;5004712;28;20030;-67
2022/03/07 10:10:38;;;;;;;7.78;5.88;;;;;;;7.01;40.00;102674.31;5008279;28;20355;-67
2022/03/07 10:13:11;;;;;;;8.88;6.13;;;;;;;7.01;39.55;102664.13;5009104;28;20418;-68
2022/03/07 10:15:39;;;;;;;9.00;6.28;;;;;;;7.04;39.41;102666.50;5008559;28;20076;-67
2022/03/07 10:18:05;;;;;;;6.82;5.15;;;;;;;7.10;39.58;102657.47;5008563;28;20061;-68
2022/03/07 10:20:31;;;;;;;6.85;6.00;;;;;;;7.17;40.09;102656.75;5010055;28;20037;-67
2022/03/07 10:22:59;;;;;;;8.25;5.90;;;;;;;7.14;39.56;102652.44;5008440;28;20033;-67
2022/03/07 10:25:27;;;;;;;6.70;6.00;;;;;;;7.16;38.96;102660.56;5007322;28;20119;-67
2022/03/07 10:27:54;;;;;;;6.40;5.35;;;;;;;7.21;39.11;102664.47;5007771;28;20037;-67
2022/03/07 10:30:22;;;;;;;8.77;5.60;;;;;;;7.22;39.21;102659.78;5008357;28;20060;-67
2022/03/07 10:32:58;;;;;;;6.95;5.57;;;;;;;7.25;39.40;102662.19;5011280;28;20026;-68
2022/03/07 10:35:32;;;;;;;6.32;5.22;;;;;;;7.27;39.26;102660.97;5012999;28;20104;-67
2022/03/07 10:38:04;;;;;;;8.18;5.43;;;;;;;7.28;39.23;102653.53;5005325;28;20030;-65
2022/03/07 10:40:31;;;;;;;6.18;5.35;;;;;;;7.25;39.15;102654.75;4993632;28;20038;-66
2022/03/07 10:43:00;;;;;;;5.85;5.30;;;;;;;7.23;39.00;102650.47;4988549;28;20030;-66
2022/03/07 10:45:26;;;;;;;9.05;5.35;;;;;;;7.21;39.05;102636.00;4989112;28;20023;-66
2022/03/07 10:47:59;;;;;;;7.43;5.78;;;;;;;7.27;39.32;102629.69;4996424;28;20039;-66
2022/03/07 10:50:27;;;;;;;8.93;5.63;;;;;;;7.25;39.37;102626.28;4994692;28;20073;-66
2022/03/07 10:52:59;;;;;;;6.60;5.55;;;;;;;7.31;39.83;102631.03;4994259;28;20026;-66
2022/03/07 10:55:27;;;;;;;7.35;6.15;;;;;;;7.29;38.71;102617.44;4992828;28;20061;-66
2022/03/07 10:57:53;;;;;;;8.15;5.20;;;;;;;7.25;39.02;102615.25;4996633;28;20029;-66
2022/03/07 11:00:20;;;;;;;6.55;5.63;;;;;;;7.20;39.89;102607.53;4991746;28;20031;-65
2022/03/07 11:02:50;;;;;;;6.80;5.13;;;;;;;7.12;39.32;102611.22;4990830;28;20038;-66
2022/03/07 11:05:17;;;;;;;6.60;5.90;;;;;;;7.11;39.96;102594.81;4973508;28;20042;-65
2022/03/07 11:07:49;;;;;;;8.95;6.03;;;;;;;7.22;40.27;102599.88;4978716;28;20353;-66
2022/03/07 11:10:16;;;;;;;7.03;5.88;;;;;;;7.30;40.14;102593.41;4989171;28;20030;-65
2022/03/07 11:12:42;;;;;;;7.95;6.13;;;;;;;7.35;40.04;102591.81;4991493;28;20050;-65
2022/03/07 11:15:09;;;;;;;9.13;6.15;;;;;;;7.45;39.87;102599.81;4990997;28;20018;-66
2022/03/07 11:17:42;;;;;;;6.13;5.53;;;;;;;7.48;40.24;102599.44;4992053;28;20038;-64
2022/03/07 11:20:11;;;;;;;6.35;5.63;;;;;;;7.45;39.08;102599.81;4981612;28;20028;-63